createdAt,value
2017-06-26T00:00:10.824Z,96.8
2017-06-26T00:00:31.383Z,96.9
2017-06-26T00:00:51.906Z,96.5
2017-06-26T00:01:12.438Z,97.4
2017-06-26T00:01:32.974Z,97.3
2017-06-26T00:01:53.501Z,96.9
2017-06-26T00:02:14.040Z,96.7
2017-06-26T00:02:34.606Z,97.1
2017-06-26T00:02:55.159Z,97.4
2017-06-26T00:03:15.669Z,97.4
2017-06-26T00:03:36.993Z,97.2
2017-06-26T00:03:58.105Z,97.7
2017-06-26T00:04:20.524Z,97.9
2017-06-26T00:04:41.050Z,97.8
2017-06-26T00:05:02.520Z,96.9
2017-06-26T00:05:23.038Z,97.3
2017-06-26T00:05:43.563Z,97.8
2017-06-26T00:06:04.086Z,98
2017-06-26T00:06:24.655Z,98.2
2017-06-26T00:06:45.179Z,98.2
2017-06-26T00:07:06.489Z,98.2
2017-06-26T00:07:27.076Z,98.4
2017-06-26T00:07:47.630Z,98.2
2017-06-26T00:08:08.159Z,98.3
2017-06-26T00:08:28.699Z,98.1
2017-06-26T00:08:49.227Z,98
2017-06-26T00:09:09.744Z,98.4
2017-06-26T00:09:31.055Z,98.6
2017-06-26T00:09:51.588Z,98.5
2017-06-26T00:10:12.141Z,98.7
2017-06-26T00:10:33.551Z,97.8
2017-06-26T00:10:54.085Z,97.6
2017-06-26T00:11:15.515Z,97.3
2017-06-26T00:11:36.039Z,97.1
2017-06-26T00:11:57.537Z,97.2
2017-06-26T00:12:18.065Z,97.3
2017-06-26T00:12:40.047Z,98
2017-06-26T00:13:00.572Z,97.8
2017-06-26T00:13:21.123Z,97.8
2017-06-26T00:13:41.654Z,97.1
2017-06-26T00:14:02.168Z,96.7
2017-06-26T00:14:22.682Z,96.8
2017-06-26T00:14:44.114Z,96.7
2017-06-26T00:15:04.656Z,98
2017-06-26T00:15:25.177Z,97.2
2017-06-26T00:15:45.726Z,96.3
2017-06-26T00:16:06.276Z,97.4
2017-06-26T00:16:27.549Z,97.9
2017-06-26T00:16:49.024Z,98.3
2017-06-26T00:17:10.035Z,98.3
2017-06-26T00:17:31.535Z,98.7
2017-06-26T00:17:52.104Z,98.7
2017-06-26T00:18:12.623Z,98.9
2017-06-26T00:18:33.146Z,99.2
2017-06-26T00:18:53.675Z,99.7
2017-06-26T00:19:14.223Z,99.8
2017-06-26T00:19:34.736Z,99.6
2017-06-26T00:19:56.549Z,99.3
2017-06-26T00:20:17.069Z,99.5
2017-06-26T00:20:37.639Z,99.5
2017-06-26T00:20:58.155Z,99
2017-06-26T00:21:18.676Z,98.2
2017-06-26T00:21:41.001Z,98.9
2017-06-26T00:22:01.529Z,98.6
2017-06-26T00:22:24.068Z,98.6
2017-06-26T00:22:44.583Z,98
2017-06-26T00:23:05.103Z,98.2
2017-06-26T00:23:26.551Z,99.3
2017-06-26T00:23:48.042Z,98.3
2017-06-26T00:24:08.574Z,98.6
2017-06-26T00:24:29.136Z,98.1
2017-06-26T00:24:49.664Z,98
2017-06-26T00:25:11.036Z,98.1
2017-06-26T00:25:33.053Z,97.6
2017-06-26T00:25:54.533Z,97.7
2017-06-26T00:26:15.055Z,96.9
2017-06-26T00:26:35.563Z,97.1
2017-06-26T00:26:56.095Z,96.3
2017-06-26T00:27:16.619Z,96.9
2017-06-26T00:27:37.127Z,97.8
2017-06-26T00:27:57.664Z,98.5
2017-06-26T00:28:18.186Z,98.3
2017-06-26T00:28:39.525Z,98.7
2017-06-26T00:29:00.542Z,98.7
2017-06-26T00:29:21.091Z,98.9
2017-06-26T00:29:42.569Z,98.7
2017-06-26T00:30:04.031Z,99
2017-06-26T00:30:26.052Z,99.1
2017-06-26T00:30:46.575Z,98.7
2017-06-26T00:31:07.101Z,99.5
2017-06-26T00:31:27.625Z,99.1
2017-06-26T00:31:48.152Z,99.2
2017-06-26T00:32:09.506Z,99.2
2017-06-26T00:32:30.020Z,99.4
2017-06-26T00:32:50.546Z,99.5
2017-06-26T00:33:11.064Z,99.4
2017-06-26T00:33:31.592Z,99.1
2017-06-26T00:33:52.104Z,99.4
2017-06-26T00:34:12.604Z,99.2
2017-06-26T00:34:33.123Z,99.4
2017-06-26T00:34:53.659Z,99.8
2017-06-26T00:35:14.177Z,99.1
2017-06-26T00:35:34.727Z,99.2
2017-06-26T00:35:55.237Z,99.6
2017-06-26T00:36:16.545Z,100
2017-06-26T00:36:37.064Z,99.7
2017-06-26T00:36:58.522Z,100
2017-06-26T00:37:19.058Z,100
2017-06-26T00:37:39.602Z,99.5
2017-06-26T00:38:00.118Z,99.8
2017-06-26T00:38:20.634Z,99.7
2017-06-26T00:38:41.167Z,99.4
2017-06-26T00:39:01.681Z,100
2017-06-26T00:39:23.051Z,100
2017-06-26T00:39:43.568Z,99.4
2017-06-26T00:40:04.115Z,99.5
2017-06-26T00:40:25.553Z,99.4
2017-06-26T00:40:47.553Z,99.6
2017-06-26T00:41:08.082Z,100
2017-06-26T00:41:28.612Z,100
2017-06-26T00:41:49.136Z,99.8
2017-06-26T00:42:09.659Z,99.5
2017-06-26T00:42:30.171Z,99.6
2017-06-26T00:42:50.704Z,99.3
2017-06-26T00:43:11.228Z,99.4
2017-06-26T00:43:32.527Z,98.7
2017-06-26T00:43:54.020Z,99.2
2017-06-26T00:44:14.535Z,99.2
2017-06-26T00:44:35.051Z,99.5
2017-06-26T00:44:55.586Z,99.4
2017-06-26T00:45:16.125Z,99.5
2017-06-26T00:45:36.675Z,99.5
2017-06-26T00:45:57.201Z,99.2
2017-06-26T00:46:17.719Z,99.3
2017-06-26T00:46:38.242Z,99.6
2017-06-26T00:46:58.752Z,98.9
2017-06-26T00:47:20.076Z,98.9
2017-06-26T00:47:41.565Z,98.7
2017-06-26T00:48:02.085Z,99.2
2017-06-26T00:48:23.573Z,99.6
2017-06-26T00:48:44.095Z,99.4
2017-06-26T00:49:04.632Z,98.8
2017-06-26T00:49:25.145Z,99.1
2017-06-26T00:49:45.733Z,99.4
2017-06-26T00:50:06.500Z,99.4
2017-06-26T00:50:27.160Z,99.5
2017-06-26T00:50:47.884Z,99.4
2017-06-26T00:51:09.059Z,99.4
2017-06-26T00:51:29.607Z,99.7
2017-06-26T00:51:50.117Z,99.6
2017-06-26T00:52:11.545Z,99.4
2017-06-26T00:52:32.095Z,100
2017-06-26T00:52:52.608Z,99.6
2017-06-26T00:53:13.122Z,99.7
2017-06-26T00:53:33.632Z,100
2017-06-26T00:53:54.147Z,99.9
2017-06-26T00:54:14.659Z,99.7
2017-06-26T00:54:35.211Z,99.9
2017-06-26T00:54:55.732Z,100
2017-06-26T00:55:17.026Z,99.9
2017-06-26T00:55:37.571Z,100
2017-06-26T00:55:58.095Z,99.9
2017-06-26T00:56:19.099Z,100
2017-06-26T00:56:40.577Z,100
2017-06-26T00:57:01.107Z,99.9
2017-06-26T00:57:22.561Z,100
2017-06-26T00:57:44.596Z,100
2017-06-26T00:58:05.131Z,100
2017-06-26T00:58:25.673Z,100
2017-06-26T00:58:48.047Z,100
2017-06-26T00:59:08.571Z,100
2017-06-26T00:59:29.079Z,100
2017-06-26T00:59:49.599Z,100
2017-06-26T01:00:12.529Z,100
2017-06-26T01:00:33.059Z,100
2017-06-26T01:00:53.580Z,100
2017-06-26T01:01:14.101Z,100
2017-06-26T01:01:34.627Z,100
2017-06-26T01:01:55.171Z,100
2017-06-26T01:02:15.708Z,100
2017-06-26T01:02:36.225Z,100
2017-06-26T01:02:56.750Z,100
2017-06-26T01:03:17.256Z,100
2017-06-26T01:03:37.785Z,100
2017-06-26T01:03:58.302Z,100
2017-06-26T01:04:19.590Z,100
2017-06-26T01:04:40.119Z,100
2017-06-26T01:05:00.633Z,100
2017-06-26T01:05:21.151Z,100
2017-06-26T01:05:44.568Z,100
2017-06-26T01:06:06.048Z,99.7
2017-06-26T01:06:27.100Z,99.7
2017-06-26T01:06:47.602Z,99.9
2017-06-26T01:07:08.142Z,99.3
2017-06-26T01:07:28.674Z,99.5
2017-06-26T01:07:49.182Z,100
2017-06-26T01:08:09.703Z,100
2017-06-26T01:08:30.214Z,100
2017-06-26T01:08:51.574Z,100
2017-06-26T01:09:12.107Z,100
2017-06-26T01:09:32.625Z,100
2017-06-26T01:09:53.144Z,100
2017-06-26T01:10:13.699Z,100
2017-06-26T01:10:34.240Z,100
2017-06-26T01:10:55.567Z,100
2017-06-26T01:11:16.081Z,100
2017-06-26T01:11:36.599Z,100
2017-06-26T01:11:57.115Z,100
2017-06-26T01:12:17.637Z,100
2017-06-26T01:12:38.152Z,100
2017-06-26T01:12:59.542Z,100
2017-06-26T01:13:20.066Z,100
2017-06-26T01:13:40.574Z,100
2017-06-26T01:14:01.086Z,100
2017-06-26T01:14:21.603Z,100
2017-06-26T01:14:42.125Z,100
2017-06-26T01:15:02.718Z,100
2017-06-26T01:15:23.276Z,100
2017-06-26T01:15:43.797Z,100
2017-06-26T01:16:04.303Z,100
2017-06-26T01:16:25.584Z,100
2017-06-26T01:16:46.112Z,100
2017-06-26T01:17:06.620Z,100
2017-06-26T01:17:27.147Z,100
2017-06-26T01:17:47.660Z,100
2017-06-26T01:18:09.079Z,100
2017-06-26T01:18:29.602Z,100
2017-06-26T01:18:51.082Z,100
2017-06-26T01:19:11.599Z,100
2017-06-26T01:19:32.113Z,100
2017-06-26T01:19:52.621Z,100
2017-06-26T01:20:13.123Z,100
2017-06-26T01:20:33.646Z,100
2017-06-26T01:20:54.179Z,100
2017-06-26T01:21:14.685Z,100
2017-06-26T01:21:42.170Z,100
2017-06-26T01:22:02.687Z,100
2017-06-26T01:22:23.208Z,100
2017-06-26T01:22:43.761Z,100
2017-06-26T01:23:05.104Z,100
2017-06-26T01:23:25.618Z,100
2017-06-26T01:23:46.133Z,100
2017-06-26T01:24:07.585Z,100
2017-06-26T01:24:28.103Z,100
2017-06-26T01:24:48.626Z,100
2017-06-26T01:25:09.156Z,100
2017-06-26T01:25:30.625Z,100
2017-06-26T01:25:52.071Z,100
2017-06-26T01:26:13.088Z,100
2017-06-26T01:26:34.571Z,100
2017-06-26T01:26:55.697Z,100
2017-06-26T01:27:17.049Z,100
2017-06-26T01:27:38.097Z,100
2017-06-26T01:27:58.612Z,100
2017-06-26T01:28:20.093Z,100
2017-06-26T01:28:40.616Z,100
2017-06-26T01:29:01.127Z,100
2017-06-26T01:29:21.644Z,100
2017-06-26T01:29:42.150Z,100
2017-06-26T01:30:03.619Z,100
2017-06-26T01:30:25.552Z,100
2017-06-26T01:30:47.554Z,100
2017-06-26T01:31:08.077Z,100
2017-06-26T01:31:29.621Z,100
2017-06-26T01:31:50.145Z,100
2017-06-26T01:32:10.670Z,100
2017-06-26T01:32:32.084Z,100
2017-06-26T01:32:53.106Z,100
2017-06-26T01:33:13.632Z,100
2017-06-26T01:33:35.619Z,100
2017-06-26T01:33:56.136Z,100
2017-06-26T01:34:17.602Z,100
2017-06-26T01:34:39.055Z,100
2017-06-26T01:34:59.577Z,100
2017-06-26T01:35:20.102Z,100
2017-06-26T01:35:40.624Z,100
2017-06-26T01:36:01.159Z,100
2017-06-26T01:36:22.606Z,100
2017-06-26T01:36:43.137Z,100
2017-06-26T01:37:04.559Z,100
2017-06-26T01:37:25.069Z,99.7
2017-06-26T01:37:45.639Z,100
2017-06-26T01:38:07.102Z,99.6
2017-06-26T01:38:30.062Z,100
2017-06-26T01:38:51.122Z,100
2017-06-26T01:39:11.645Z,100
2017-06-26T01:39:32.155Z,99.9
2017-06-26T01:39:52.687Z,99.3
2017-06-26T01:40:13.221Z,99.6
2017-06-26T01:40:33.728Z,99.6
2017-06-26T01:40:54.247Z,99.4
2017-06-26T01:41:15.601Z,99.7
2017-06-26T01:41:36.134Z,99.4
2017-06-26T01:41:56.654Z,99.5
2017-06-26T01:42:17.175Z,99.9
2017-06-26T01:42:37.699Z,99.1
2017-06-26T01:42:58.216Z,99.4
2017-06-26T01:43:18.728Z,99.6
2017-06-26T01:43:39.237Z,99.9
2017-06-26T01:44:00.607Z,100
2017-06-26T01:44:21.126Z,100
2017-06-26T01:44:41.630Z,100
2017-06-26T01:45:03.115Z,100
2017-06-26T01:45:25.080Z,100
2017-06-26T01:45:45.592Z,100
2017-06-26T01:46:06.109Z,100
2017-06-26T01:46:26.630Z,100
2017-06-26T01:46:48.066Z,100
2017-06-26T01:47:08.578Z,100
2017-06-26T01:47:29.089Z,100
2017-06-26T01:47:49.601Z,100
2017-06-26T01:48:10.127Z,100
2017-06-26T01:48:30.646Z,100
2017-06-26T01:48:52.069Z,100
2017-06-26T01:49:12.622Z,100
2017-06-26T01:49:33.161Z,100
2017-06-26T01:49:53.682Z,100
2017-06-26T01:50:14.190Z,100
2017-06-26T01:50:34.721Z,100
2017-06-26T01:50:55.342Z,100
2017-06-26T01:51:16.615Z,100
2017-06-26T01:51:39.603Z,100
2017-06-26T01:52:00.117Z,100
2017-06-26T01:52:21.115Z,100
2017-06-26T01:52:41.638Z,100
2017-06-26T01:53:02.150Z,100
2017-06-26T01:53:22.673Z,100
2017-06-26T01:53:44.148Z,100
2017-06-26T01:54:05.581Z,100
2017-06-26T01:54:26.100Z,100
2017-06-26T01:54:46.653Z,100
2017-06-26T01:55:07.180Z,100
2017-06-26T01:55:28.588Z,100
2017-06-26T01:55:50.607Z,100
2017-06-26T01:56:12.093Z,100
2017-06-26T01:56:32.628Z,100
2017-06-26T01:56:53.144Z,100
2017-06-26T01:57:13.666Z,100
2017-06-26T01:57:34.180Z,100
2017-06-26T01:57:54.705Z,100
2017-06-26T01:58:15.225Z,100
2017-06-26T01:58:36.634Z,100
2017-06-26T01:58:57.151Z,100
2017-06-26T01:59:17.666Z,100
2017-06-26T01:59:38.195Z,100
2017-06-26T01:59:58.739Z,100
2017-06-26T02:00:19.253Z,100
2017-06-26T02:00:39.794Z,100
2017-06-26T02:01:00.326Z,100
2017-06-26T02:01:22.577Z,100
2017-06-26T02:01:43.121Z,100
2017-06-26T02:02:03.632Z,100
2017-06-26T02:02:25.648Z,100
2017-06-26T02:02:47.117Z,100
2017-06-26T02:03:07.644Z,100
2017-06-26T02:03:28.182Z,100
2017-06-26T02:03:48.694Z,100
2017-06-26T02:04:10.138Z,100
2017-06-26T02:04:30.645Z,100
2017-06-26T02:04:51.149Z,100
2017-06-26T02:05:11.662Z,100
2017-06-26T02:05:32.213Z,100
2017-06-26T02:05:52.725Z,100
2017-06-26T02:06:13.243Z,100
2017-06-26T02:06:33.774Z,100
2017-06-26T02:06:55.092Z,100
2017-06-26T02:07:15.601Z,100
2017-06-26T02:07:36.128Z,100
2017-06-26T02:07:56.640Z,100
2017-06-26T02:08:17.165Z,100
2017-06-26T02:08:37.699Z,100
2017-06-26T02:08:58.222Z,100
2017-06-26T02:09:18.736Z,100
2017-06-26T02:09:40.120Z,100
2017-06-26T02:10:00.646Z,100
2017-06-26T02:10:21.182Z,100
2017-06-26T02:10:41.731Z,100
2017-06-26T02:11:02.280Z,100
2017-06-26T02:11:23.649Z,100
2017-06-26T02:11:45.130Z,100
2017-06-26T02:12:06.130Z,100
2017-06-26T02:12:26.634Z,100
2017-06-26T02:12:48.093Z,100
2017-06-26T02:13:08.617Z,100
2017-06-26T02:13:29.149Z,100
2017-06-26T02:13:50.637Z,100
2017-06-26T02:14:11.153Z,100
2017-06-26T02:14:31.681Z,100
2017-06-26T02:14:53.098Z,100
2017-06-26T02:15:13.614Z,100
2017-06-26T02:15:34.134Z,100
2017-06-26T02:15:55.621Z,100
2017-06-26T02:16:16.619Z,100
2017-06-26T02:16:38.114Z,100
2017-06-26T02:16:58.664Z,100
2017-06-26T02:17:19.180Z,100
2017-06-26T02:17:39.693Z,100
2017-06-26T02:18:00.198Z,100
2017-06-26T02:18:21.631Z,100
2017-06-26T02:18:42.149Z,100
2017-06-26T02:19:03.151Z,100
2017-06-26T02:19:23.669Z,100
2017-06-26T02:19:46.153Z,100
2017-06-26T02:20:06.668Z,100
2017-06-26T02:20:27.183Z,100
2017-06-26T02:20:47.707Z,100
2017-06-26T02:21:08.225Z,100
2017-06-26T02:21:28.779Z,100
2017-06-26T02:21:49.306Z,100
2017-06-26T02:22:10.609Z,100
2017-06-26T02:22:31.135Z,100
2017-06-26T02:22:51.656Z,100
2017-06-26T02:23:13.651Z,100
2017-06-26T02:23:35.150Z,100
2017-06-26T02:23:58.090Z,100
2017-06-26T02:24:20.109Z,100
2017-06-26T02:24:40.628Z,100
2017-06-26T02:25:02.166Z,100
2017-06-26T02:25:22.691Z,100
2017-06-26T02:25:43.224Z,100
2017-06-26T02:26:03.723Z,100
2017-06-26T02:26:24.247Z,100
2017-06-26T02:26:44.770Z,100
2017-06-26T02:27:05.277Z,100
2017-06-26T02:27:26.637Z,100
2017-06-26T02:27:48.094Z,100
2017-06-26T02:28:09.597Z,100
2017-06-26T02:28:31.100Z,100
2017-06-26T02:28:51.654Z,100
2017-06-26T02:29:12.172Z,100
2017-06-26T02:29:32.683Z,100
2017-06-26T02:29:53.232Z,100
2017-06-26T02:30:13.760Z,100
2017-06-26T02:30:34.289Z,100
2017-06-26T02:30:56.099Z,100
2017-06-26T02:31:16.640Z,100
2017-06-26T02:31:37.162Z,100
2017-06-26T02:31:57.678Z,100
2017-06-26T02:32:18.253Z,100
2017-06-26T02:32:39.657Z,100
2017-06-26T02:33:00.174Z,100
2017-06-26T02:33:21.642Z,100
2017-06-26T02:33:42.163Z,100
2017-06-26T02:34:02.736Z,100
2017-06-26T02:34:24.654Z,100
2017-06-26T02:34:46.601Z,100
2017-06-26T02:35:07.636Z,100
2017-06-26T02:35:29.101Z,100
2017-06-26T02:35:49.627Z,100
2017-06-26T02:36:10.149Z,100
2017-06-26T02:36:30.667Z,100
2017-06-26T02:36:52.151Z,100
2017-06-26T02:37:12.664Z,100
2017-06-26T02:37:33.180Z,100
2017-06-26T02:37:53.700Z,100
2017-06-26T02:38:14.238Z,100
2017-06-26T02:38:34.764Z,100
2017-06-26T02:38:55.278Z,100
2017-06-26T02:39:16.724Z,100
2017-06-26T02:39:37.248Z,100
2017-06-26T02:39:58.663Z,100
2017-06-26T02:40:19.179Z,100
2017-06-26T02:40:39.718Z,100
2017-06-26T02:41:00.239Z,100
2017-06-26T02:41:21.656Z,100
2017-06-26T02:41:43.157Z,100
2017-06-26T02:42:04.608Z,100
2017-06-26T02:42:25.628Z,100
2017-06-26T02:42:47.138Z,100
2017-06-26T02:43:07.665Z,100
2017-06-26T02:43:28.182Z,100
2017-06-26T02:43:48.719Z,100
2017-06-26T02:44:09.235Z,100
2017-06-26T02:44:30.660Z,100
2017-06-26T02:44:51.204Z,100
2017-06-26T02:45:12.654Z,100
2017-06-26T02:45:33.672Z,100
2017-06-26T02:45:54.181Z,100
2017-06-26T02:46:14.737Z,100
2017-06-26T02:46:35.265Z,100
2017-06-26T02:46:56.616Z,100
2017-06-26T02:47:17.151Z,100
2017-06-26T02:47:37.721Z,100
2017-06-26T02:47:59.111Z,100
2017-06-26T02:48:20.640Z,100
2017-06-26T02:48:41.169Z,100
2017-06-26T02:49:01.674Z,100
2017-06-26T02:49:23.111Z,100
2017-06-26T02:49:43.647Z,100
2017-06-26T02:50:05.137Z,100
2017-06-26T02:50:25.653Z,100
2017-06-26T02:50:46.187Z,100
2017-06-26T02:51:06.715Z,100
2017-06-26T02:51:27.243Z,100
2017-06-26T02:51:47.757Z,100
2017-06-26T02:52:08.283Z,100
2017-06-26T02:52:28.807Z,100
2017-06-26T02:52:49.334Z,100
2017-06-26T02:53:10.613Z,100
2017-06-26T02:53:31.162Z,100
2017-06-26T02:53:51.679Z,100
2017-06-26T02:54:12.213Z,100
2017-06-26T02:54:32.747Z,100
2017-06-26T02:54:53.259Z,100
2017-06-26T02:55:13.783Z,100
2017-06-26T02:55:35.658Z,100
2017-06-26T02:55:56.173Z,100
2017-06-26T02:56:16.705Z,100
2017-06-26T02:56:37.223Z,100
2017-06-26T02:56:57.729Z,100
2017-06-26T02:57:18.248Z,100
2017-06-26T02:57:38.789Z,100
2017-06-26T02:57:59.306Z,100
2017-06-26T02:58:19.827Z,100
2017-06-26T02:58:40.344Z,100
2017-06-26T02:59:00.867Z,100
2017-06-26T02:59:21.399Z,100
2017-06-26T02:59:42.664Z,100
2017-06-26T03:00:03.201Z,100
2017-06-26T03:00:23.719Z,100
2017-06-26T03:00:44.252Z,100
2017-06-26T03:01:04.770Z,100
2017-06-26T03:01:25.297Z,100
2017-06-26T03:01:46.646Z,100
2017-06-26T03:02:07.200Z,100
2017-06-26T03:02:27.726Z,100
2017-06-26T03:02:48.247Z,100
2017-06-26T03:03:08.765Z,100
2017-06-26T03:03:29.292Z,100
2017-06-26T03:03:50.661Z,100
2017-06-26T03:04:11.211Z,100
2017-06-26T03:04:31.734Z,100
2017-06-26T03:04:52.259Z,100
2017-06-26T03:05:13.536Z,100
2017-06-26T03:05:34.097Z,100
2017-06-26T03:05:54.623Z,100
2017-06-26T03:06:15.674Z,100
2017-06-26T03:06:36.218Z,100
2017-06-26T03:06:56.747Z,100
2017-06-26T03:07:17.300Z,100
2017-06-26T03:07:37.830Z,100
2017-06-26T03:07:58.386Z,100
2017-06-26T03:08:18.938Z,100
2017-06-26T03:08:39.490Z,100
2017-06-26T03:09:00.643Z,100
2017-06-26T03:09:21.673Z,100
2017-06-26T03:09:42.208Z,100
2017-06-26T03:10:02.751Z,100
2017-06-26T03:10:23.288Z,100
2017-06-26T03:10:43.831Z,100
2017-06-26T03:11:04.366Z,100
2017-06-26T03:11:24.885Z,100
2017-06-26T03:11:45.390Z,100
2017-06-26T03:12:06.681Z,100
2017-06-26T03:12:27.235Z,100
2017-06-26T03:12:47.794Z,100
2017-06-26T03:13:08.326Z,100
2017-06-26T03:13:28.865Z,100
2017-06-26T03:13:49.401Z,100
2017-06-26T03:14:09.967Z,100
2017-06-26T03:14:30.515Z,100
2017-06-26T03:14:51.854Z,100
2017-06-26T03:15:14.131Z,100
2017-06-26T03:15:34.684Z,100
2017-06-26T03:15:55.196Z,100
2017-06-26T03:16:15.728Z,100
2017-06-26T03:16:36.287Z,100
2017-06-26T03:16:58.131Z,100
2017-06-26T03:17:18.649Z,100
2017-06-26T03:17:39.169Z,100
2017-06-26T03:18:00.183Z,100
2017-06-26T03:18:21.659Z,100
2017-06-26T03:18:42.182Z,100
2017-06-26T03:19:02.716Z,100
2017-06-26T03:19:23.229Z,100
2017-06-26T03:19:43.743Z,100
2017-06-26T03:20:04.272Z,100
2017-06-26T03:20:24.795Z,100
2017-06-26T03:20:45.333Z,100
2017-06-26T03:21:05.858Z,100
2017-06-26T03:21:26.410Z,100
2017-06-26T03:21:48.679Z,100
2017-06-26T03:22:09.190Z,100
2017-06-26T03:22:30.655Z,100
2017-06-26T03:22:51.178Z,100
2017-06-26T03:23:11.740Z,100
2017-06-26T03:23:32.325Z,100
2017-06-26T03:23:52.854Z,100
2017-06-26T03:24:13.420Z,100
2017-06-26T03:24:34.687Z,100
2017-06-26T03:24:55.762Z,100
2017-06-26T03:25:16.278Z,100
2017-06-26T03:25:36.803Z,100
2017-06-26T03:25:57.331Z,100
2017-06-26T03:26:17.862Z,100
2017-06-26T03:26:38.383Z,100
2017-06-26T03:26:59.673Z,100
2017-06-26T03:27:20.207Z,100
2017-06-26T03:27:40.733Z,100
2017-06-26T03:28:02.174Z,100
2017-06-26T03:28:22.695Z,100
2017-06-26T03:28:43.219Z,100
2017-06-26T03:29:03.837Z,100
2017-06-26T03:29:24.367Z,100
2017-06-26T03:29:44.894Z,100
2017-06-26T03:30:06.179Z,100
2017-06-26T03:30:26.698Z,100
2017-06-26T03:30:47.244Z,100
2017-06-26T03:31:07.766Z,100
2017-06-26T03:31:28.285Z,100
2017-06-26T03:31:48.815Z,100
2017-06-26T03:32:09.349Z,100
2017-06-26T03:32:31.233Z,100
2017-06-26T03:32:52.716Z,100
2017-06-26T03:33:14.157Z,100
2017-06-26T03:33:34.665Z,100
2017-06-26T03:33:56.186Z,100
2017-06-26T03:34:17.215Z,100
2017-06-26T03:34:37.759Z,100
2017-06-26T03:34:58.283Z,100
2017-06-26T03:35:18.812Z,100
2017-06-26T03:35:39.336Z,100
2017-06-26T03:35:59.859Z,100
2017-06-26T03:36:21.185Z,100
2017-06-26T03:36:41.713Z,100
2017-06-26T03:37:02.247Z,100
2017-06-26T03:37:22.775Z,100
2017-06-26T03:37:43.298Z,100
2017-06-26T03:38:03.813Z,100
2017-06-26T03:38:25.707Z,100
2017-06-26T03:38:46.696Z,100
2017-06-26T03:39:08.169Z,100
2017-06-26T03:39:29.648Z,100
2017-06-26T03:39:50.195Z,100
2017-06-26T03:40:11.673Z,100
2017-06-26T03:40:32.205Z,100
2017-06-26T03:40:52.731Z,100
2017-06-26T03:41:15.262Z,100
2017-06-26T03:41:36.686Z,100
2017-06-26T03:41:57.219Z,100
2017-06-26T03:42:17.746Z,100
2017-06-26T03:42:38.267Z,100
2017-06-26T03:43:00.652Z,100
2017-06-26T03:43:22.187Z,100
2017-06-26T03:43:43.200Z,100
2017-06-26T03:44:03.727Z,100
2017-06-26T03:44:24.238Z,100
2017-06-26T03:44:44.759Z,100
2017-06-26T03:45:05.297Z,100
2017-06-26T03:45:25.813Z,100
2017-06-26T03:45:46.326Z,100
2017-06-26T03:46:06.863Z,100
2017-06-26T03:46:27.382Z,100
2017-06-26T03:46:47.919Z,100
2017-06-26T03:47:08.444Z,100
2017-06-26T03:47:29.707Z,100
2017-06-26T03:47:50.231Z,100
2017-06-26T03:48:11.664Z,100
2017-06-26T03:48:32.180Z,100
2017-06-26T03:48:52.720Z,100
2017-06-26T03:49:13.237Z,100
2017-06-26T03:49:33.758Z,100
2017-06-26T03:49:56.155Z,100
2017-06-26T03:50:18.657Z,100
2017-06-26T03:50:39.685Z,100
2017-06-26T03:51:00.722Z,100
2017-06-26T03:51:21.259Z,100
2017-06-26T03:51:42.774Z,100
2017-06-26T03:52:04.202Z,100
2017-06-26T03:52:24.721Z,100
2017-06-26T03:52:45.271Z,100
2017-06-26T03:53:05.828Z,100
2017-06-26T03:53:26.350Z,100
2017-06-26T03:53:46.878Z,100
2017-06-26T03:54:07.411Z,100
2017-06-26T03:54:27.939Z,100
2017-06-26T03:54:48.465Z,100
2017-06-26T03:55:08.988Z,100
2017-06-26T03:55:30.217Z,100
2017-06-26T03:55:53.234Z,100
2017-06-26T03:56:13.772Z,100
2017-06-26T03:56:34.305Z,100
2017-06-26T03:56:55.739Z,100
2017-06-26T03:57:16.260Z,100
2017-06-26T03:57:36.795Z,100
2017-06-26T03:57:57.322Z,100
2017-06-26T03:58:17.848Z,100
2017-06-26T03:58:38.376Z,100
2017-06-26T03:58:58.924Z,100
2017-06-26T03:59:19.450Z,100
2017-06-26T03:59:39.992Z,100
2017-06-26T04:00:00.530Z,100
2017-06-26T04:00:21.101Z,100
2017-06-26T04:00:41.627Z,100
2017-06-26T04:01:02.190Z,100
2017-06-26T04:01:22.723Z,100
2017-06-26T04:01:43.252Z,100
2017-06-26T04:02:03.777Z,100
2017-06-26T04:02:24.318Z,100
2017-06-26T04:02:44.855Z,100
2017-06-26T04:03:05.387Z,100
2017-06-26T04:03:26.670Z,100
2017-06-26T04:03:47.225Z,100
2017-06-26T04:04:07.766Z,100
2017-06-26T04:04:28.293Z,100
2017-06-26T04:04:48.843Z,100
2017-06-26T04:05:09.388Z,100
2017-06-26T04:05:29.918Z,100
2017-06-26T04:05:51.204Z,100
2017-06-26T04:06:11.740Z,100
2017-06-26T04:06:32.266Z,100
2017-06-26T04:06:52.796Z,100
2017-06-26T04:07:13.357Z,100
2017-06-26T04:07:33.879Z,100
2017-06-26T04:07:54.414Z,100
2017-06-26T04:08:15.717Z,100
2017-06-26T04:08:36.245Z,100
2017-06-26T04:08:56.785Z,100
2017-06-26T04:09:17.327Z,100
2017-06-26T04:09:37.845Z,100
2017-06-26T04:09:58.413Z,100
2017-06-26T04:10:18.936Z,100
2017-06-26T04:10:39.479Z,100
2017-06-26T04:10:59.996Z,100
2017-06-26T04:11:20.515Z,100
2017-06-26T04:11:41.718Z,100
2017-06-26T04:12:03.200Z,100
2017-06-26T04:12:24.708Z,100
2017-06-26T04:12:45.237Z,100
2017-06-26T04:13:05.783Z,100
2017-06-26T04:13:27.184Z,100
2017-06-26T04:13:48.229Z,100
2017-06-26T04:14:08.754Z,100
2017-06-26T04:14:29.274Z,100
2017-06-26T04:14:51.724Z,100
2017-06-26T04:15:12.246Z,100
2017-06-26T04:15:32.785Z,100
2017-06-26T04:15:53.330Z,100
2017-06-26T04:16:13.875Z,100
2017-06-26T04:16:35.269Z,100
2017-06-26T04:16:56.693Z,100
2017-06-26T04:17:17.231Z,100
2017-06-26T04:17:37.760Z,100
2017-06-26T04:18:00.175Z,100
2017-06-26T04:18:20.708Z,100
2017-06-26T04:18:41.249Z,100
2017-06-26T04:19:01.811Z,100
2017-06-26T04:19:22.320Z,100
2017-06-26T04:19:42.870Z,100
2017-06-26T04:20:04.214Z,100
2017-06-26T04:20:24.738Z,100
2017-06-26T04:20:45.257Z,100
2017-06-26T04:21:05.783Z,100
2017-06-26T04:21:26.321Z,100
2017-06-26T04:21:46.893Z,100
2017-06-26T04:22:07.432Z,100
2017-06-26T04:22:27.960Z,100
2017-06-26T04:22:49.232Z,100
2017-06-26T04:23:09.800Z,100
2017-06-26T04:23:30.330Z,100
2017-06-26T04:23:50.864Z,100
2017-06-26T04:24:11.415Z,100
2017-06-26T04:24:32.684Z,100
2017-06-26T04:24:53.259Z,100
2017-06-26T04:25:13.779Z,100
2017-06-26T04:25:34.313Z,100
2017-06-26T04:25:54.859Z,100
2017-06-26T04:26:16.791Z,100
2017-06-26T04:26:38.229Z,100
2017-06-26T04:26:58.775Z,99.8
2017-06-26T04:27:19.314Z,100
2017-06-26T04:27:40.739Z,99.9
2017-06-26T04:28:01.272Z,100
2017-06-26T04:28:21.860Z,100
2017-06-26T04:28:43.235Z,100
2017-06-26T04:29:03.778Z,100
2017-06-26T04:29:24.297Z,100
2017-06-26T04:29:45.790Z,100
2017-06-26T04:30:07.684Z,100
2017-06-26T04:30:28.257Z,100
2017-06-26T04:30:48.808Z,99.9
2017-06-26T04:31:10.308Z,99.7
2017-06-26T04:31:30.843Z,100
2017-06-26T04:31:51.370Z,100
2017-06-26T04:32:12.764Z,100
2017-06-26T04:32:35.206Z,100
2017-06-26T04:32:56.729Z,100
2017-06-26T04:33:19.689Z,99.9
2017-06-26T04:33:40.245Z,99
2017-06-26T04:34:01.689Z,98.3
2017-06-26T04:34:22.236Z,98
2017-06-26T04:34:42.758Z,98
2017-06-26T04:35:04.233Z,98.5
2017-06-26T04:35:24.755Z,98
2017-06-26T04:35:45.284Z,98.4
2017-06-26T04:36:06.707Z,98.6
2017-06-26T04:36:27.274Z,98.4
2017-06-26T04:36:48.711Z,98.8
2017-06-26T04:37:09.232Z,99
2017-06-26T04:37:29.765Z,99.1
2017-06-26T04:37:51.192Z,98
2017-06-26T04:38:11.759Z,98
2017-06-26T04:38:32.742Z,97.9
2017-06-26T04:38:53.751Z,98.2
2017-06-26T04:39:14.275Z,97.8
2017-06-26T04:39:34.801Z,98.1
2017-06-26T04:39:55.335Z,98.1
2017-06-26T04:40:16.740Z,98.1
2017-06-26T04:40:38.196Z,98
2017-06-26T04:40:59.303Z,97.9
2017-06-26T04:41:20.739Z,98.4
2017-06-26T04:41:41.267Z,98.3
2017-06-26T04:42:01.787Z,98
2017-06-26T04:42:23.225Z,96.7
2017-06-26T04:42:44.740Z,97.1
2017-06-26T04:43:05.282Z,97.6
2017-06-26T04:43:25.821Z,96.8
2017-06-26T04:43:47.198Z,96.2
2017-06-26T04:44:07.752Z,96.6
2017-06-26T04:44:29.213Z,97.2